Bolivar Point — WDD5224 — position and weather

sailwx.info

Track history (hours):
 
Tides and Currents Weather Stations Pressure Air Temp Water Temp Dewpoint Dewpoint Depression Visibility Wind Speed Wind Dir Waves Ship Positions

Bolivar Point

Owner: Higman Barge Lines, Inc., Orange, TX. More information available from US FCC via Universal Licensing System and Coast Guard Vessel Documentation Center.

Last reported at 2018-Jun-23 05:12 UTC. Time now 2018-Jun-25 00:13 UTC.
Position N 27°49' W 097°29'.

Length 112 m; draft 2.6 m.

Type: . MMSI: 367155310.

Date/timePositionNaut miles runAvg speedWind from/ knotsBaromVisibWave heightAir tempDewpointWater temp
2018-Jun-23 05:12N 27°49' W 097°29'0 0.0
2018-Jun-23 04:57N 27°49' W 097°29'  
2018-Jun-16 23:22N 28°54' W 095°25'5 2.0
2018-Jun-16 21:03N 28°56' W 095°20'0 6.0
2018-Jun-16 21:00N 28°56' W 095°19'3 6.1
2018-Jun-16 20:30N 28°58' W 095°17'3 6.1
2018-Jun-16 20:00N 29°00' W 095°15'3 5.8
2018-Jun-16 19:30N 29°03' W 095°13'3 5.5
2018-Jun-16 19:00N 29°05' W 095°12'3 5.7
2018-Jun-16 18:30N 29°08' W 095°10'3 5.9
2018-Jun-16 18:00N 29°10' W 095°08'3 6.1
2018-Jun-16 17:30N 29°11' W 095°05'3 5.9
2018-Jun-16 17:00N 29°13' W 095°02'2 3.1
2018-Jun-16 16:30N 29°14' W 095°01'3 6.3
2018-Jun-16 16:00N 29°17' W 094°59'3 6.4
2018-Jun-16 15:30N 29°17' W 094°55'3 5.4
2018-Jun-16 15:00N 29°19' W 094°52'2 3.3
2018-Jun-16 14:30N 29°20' W 094°51'3 6.1
2018-Jun-16 14:00N 29°22' W 094°48'13 6.1
2018-Jun-16 11:58N 29°33' W 094°55'  
Track history (hours):
 
Tides and Currents Weather Stations Pressure Air Temp Water Temp Dewpoint Dewpoint Depression Visibility Wind Speed Wind Dir Waves Ship Positions

Bolivar Point

Owner: Higman Barge Lines, Inc., Orange, TX. More information available from US FCC via Universal Licensing System and Coast Guard Vessel Documentation Center.

Last reported at 2018-Jun-23 05:12 UTC. Time now 2018-Jun-25 00:13 UTC.
Position N 27°49' W 097°29'.

Length 112 m; draft 2.6 m.

Type: . MMSI: 367155310.

Date/timePositionNaut miles runAvg speedWind from/ knotsBaromVisibWave heightAir tempDewpointWater temp
2018-Jun-23 05:12N 27°49' W 097°29'0 0.0
2018-Jun-23 04:57N 27°49' W 097°29'  
2018-Jun-16 23:22N 28°54' W 095°25'5 2.0
2018-Jun-16 21:03N 28°56' W 095°20'0 6.0
2018-Jun-16 21:00N 28°56' W 095°19'3 6.1
2018-Jun-16 20:30N 28°58' W 095°17'3 6.1
2018-Jun-16 20:00N 29°00' W 095°15'3 5.8
2018-Jun-16 19:30N 29°03' W 095°13'3 5.5
2018-Jun-16 19:00N 29°05' W 095°12'3 5.7
2018-Jun-16 18:30N 29°08' W 095°10'3 5.9
2018-Jun-16 18:00N 29°10' W 095°08'3 6.1
2018-Jun-16 17:30N 29°11' W 095°05'3 5.9
2018-Jun-16 17:00N 29°13' W 095°02'2 3.1
2018-Jun-16 16:30N 29°14' W 095°01'3 6.3
2018-Jun-16 16:00N 29°17' W 094°59'3 6.4
2018-Jun-16 15:30N 29°17' W 094°55'3 5.4
2018-Jun-16 15:00N 29°19' W 094°52'2 3.3
2018-Jun-16 14:30N 29°20' W 094°51'3 6.1
2018-Jun-16 14:00N 29°22' W 094°48'13 6.1
2018-Jun-16 11:58N 29°33' W 094°55'  

Dump ship's entire track history